sensor_id;sensor_type;location;lat;lon;timestamp;P1;durP1;ratioP1;P2;durP2;ratioP2
19543;SDS011;9917;51.256;7.152;2023-04-01T00:02:00;3.63;;;1.03;;
19543;SDS011;9917;51.256;7.152;2023-04-01T00:04:26;2.50;;;0.73;;
19543;SDS011;9917;51.256;7.152;2023-04-01T00:06:52;1.43;;;0.90;;
19543;SDS011;9917;51.256;7.152;2023-04-01T00:09:18;3.33;;;0.90;;
19543;SDS011;9917;51.256;7.152;2023-04-01T00:11:43;2.83;;;0.80;;
19543;SDS011;9917;51.256;7.152;2023-04-01T00:14:09;2.60;;;0.70;;
19543;SDS011;9917;51.256;7.152;2023-04-01T00:16:35;1.97;;;0.90;;
19543;SDS011;9917;51.256;7.152;2023-04-01T00:19:02;1.60;;;0.77;;
19543;SDS011;9917;51.256;7.152;2023-04-01T00:21:28;1.57;;;0.63;;
19543;SDS011;9917;51.256;7.152;2023-04-01T00:23:53;2.23;;;0.70;;
19543;SDS011;9917;51.256;7.152;2023-04-01T00:26:19;1.10;;;0.60;;
19543;SDS011;9917;51.256;7.152;2023-04-01T00:28:46;2.10;;;0.60;;
19543;SDS011;9917;51.256;7.152;2023-04-01T00:31:12;1.73;;;0.50;;
19543;SDS011;9917;51.256;7.152;2023-04-01T00:33:39;2.23;;;0.50;;
19543;SDS011;9917;51.256;7.152;2023-04-01T00:36:07;1.23;;;0.60;;
19543;SDS011;9917;51.256;7.152;2023-04-01T00:38:34;1.27;;;0.50;;
19543;SDS011;9917;51.256;7.152;2023-04-01T00:40:59;2.73;;;1.27;;
19543;SDS011;9917;51.256;7.152;2023-04-01T00:43:25;5.13;;;0.87;;
19543;SDS011;9917;51.256;7.152;2023-04-01T00:45:51;2.53;;;0.80;;
19543;SDS011;9917;51.256;7.152;2023-04-01T00:48:17;3.10;;;0.90;;
19543;SDS011;9917;51.256;7.152;2023-04-01T00:50:46;1.53;;;0.70;;
19543;SDS011;9917;51.256;7.152;2023-04-01T00:53:15;1.67;;;0.87;;
19543;SDS011;9917;51.256;7.152;2023-04-01T00:55:44;2.93;;;1.10;;
19543;SDS011;9917;51.256;7.152;2023-04-01T00:58:15;2.67;;;0.90;;
19543;SDS011;9917;51.256;7.152;2023-04-01T01:00:43;2.60;;;0.93;;
19543;SDS011;9917;51.256;7.152;2023-04-01T01:03:11;1.90;;;0.87;;
19543;SDS011;9917;51.256;7.152;2023-04-01T01:05:41;3.20;;;0.80;;
19543;SDS011;9917;51.256;7.152;2023-04-01T01:08:30;2.27;;;0.90;;
19543;SDS011;9917;51.256;7.152;2023-04-01T01:11:04;1.90;;;0.87;;
19543;SDS011;9917;51.256;7.152;2023-04-01T01:13:33;1.20;;;0.67;;
19543;SDS011;9917;51.256;7.152;2023-04-01T01:16:04;1.90;;;1.03;;
19543;SDS011;9917;51.256;7.152;2023-04-01T01:18:35;2.83;;;1.07;;
19543;SDS011;9917;51.256;7.152;2023-04-01T01:21:12;1.03;;;0.73;;
19543;SDS011;9917;51.256;7.152;2023-04-01T01:24:08;2.07;;;0.93;;
19543;SDS011;9917;51.256;7.152;2023-04-01T01:26:53;2.40;;;0.60;;
19543;SDS011;9917;51.256;7.152;2023-04-01T01:29:39;2.30;;;0.90;;
19543;SDS011;9917;51.256;7.152;2023-04-01T01:32:27;4.03;;;0.67;;
19543;SDS011;9917;51.256;7.152;2023-04-01T01:35:16;2.33;;;0.63;;
19543;SDS011;9917;51.256;7.152;2023-04-01T01:37:46;4.07;;;0.60;;
19543;SDS011;9917;51.256;7.152;2023-04-01T01:40:15;2.40;;;1.00;;
19543;SDS011;9917;51.256;7.152;2023-04-01T01:42:42;1.13;;;0.50;;
19543;SDS011;9917;51.256;7.152;2023-04-01T01:45:12;1.33;;;0.50;;
19543;SDS011;9917;51.256;7.152;2023-04-01T01:47:41;1.03;;;0.60;;
19543;SDS011;9917;51.256;7.152;2023-04-01T01:50:08;1.13;;;0.70;;
19543;SDS011;9917;51.256;7.152;2023-04-01T01:52:36;2.87;;;0.87;;
19543;SDS011;9917;51.256;7.152;2023-04-01T01:55:02;1.83;;;0.87;;
19543;SDS011;9917;51.256;7.152;2023-04-01T01:57:48;1.80;;;0.67;;
19543;SDS011;9917;51.256;7.152;2023-04-01T02:00:15;2.07;;;0.60;;
19543;SDS011;9917;51.256;7.152;2023-04-01T02:02:42;2.47;;;0.80;;
19543;SDS011;9917;51.256;7.152;2023-04-01T02:05:10;1.93;;;0.80;;
19543;SDS011;9917;51.256;7.152;2023-04-01T02:07:41;1.53;;;0.63;;
19543;SDS011;9917;51.256;7.152;2023-04-01T02:10:10;3.20;;;1.20;;
19543;SDS011;9917;51.256;7.152;2023-04-01T02:12:36;1.90;;;0.80;;
19543;SDS011;9917;51.256;7.152;2023-04-01T02:15:04;3.67;;;0.73;;
19543;SDS011;9917;51.256;7.152;2023-04-01T02:17:33;1.10;;;0.67;;
19543;SDS011;9917;51.256;7.152;2023-04-01T02:20:05;1.33;;;0.57;;
19543;SDS011;9917;51.256;7.152;2023-04-01T02:22:36;1.73;;;0.60;;
19543;SDS011;9917;51.256;7.152;2023-04-01T02:25:07;0.87;;;0.40;;
19543;SDS011;9917;51.256;7.152;2023-04-01T02:27:35;1.27;;;0.53;;
19543;SDS011;9917;51.256;7.152;2023-04-01T02:30:01;1.37;;;0.83;;
19543;SDS011;9917;51.256;7.152;2023-04-01T02:32:28;1.97;;;0.90;;
19543;SDS011;9917;51.256;7.152;2023-04-01T02:34:56;1.63;;;1.10;;
19543;SDS011;9917;51.256;7.152;2023-04-01T02:37:22;0.77;;;0.63;;
19543;SDS011;9917;51.256;7.152;2023-04-01T02:39:48;1.27;;;0.83;;
19543;SDS011;9917;51.256;7.152;2023-04-01T02:42:15;1.63;;;0.90;;
19543;SDS011;9917;51.256;7.152;2023-04-01T02:44:41;1.87;;;0.80;;
19543;SDS011;9917;51.256;7.152;2023-04-01T02:47:07;2.07;;;1.00;;
19543;SDS011;9917;51.256;7.152;2023-04-01T02:49:33;1.40;;;0.80;;
19543;SDS011;9917;51.256;7.152;2023-04-01T02:51:58;3.10;;;0.70;;
19543;SDS011;9917;51.256;7.152;2023-04-01T02:54:24;1.73;;;0.70;;
19543;SDS011;9917;51.256;7.152;2023-04-01T02:56:50;1.80;;;0.60;;
19543;SDS011;9917;51.256;7.152;2023-04-01T02:59:17;1.53;;;0.70;;
19543;SDS011;9917;51.256;7.152;2023-04-01T03:01:42;1.60;;;0.70;;
19543;SDS011;9917;51.256;7.152;2023-04-01T03:04:08;1.03;;;0.67;;
19543;SDS011;9917;51.256;7.152;2023-04-01T03:06:34;2.20;;;0.80;;
19543;SDS011;9917;51.256;7.152;2023-04-01T03:09:00;1.77;;;0.70;;
19543;SDS011;9917;51.256;7.152;2023-04-01T03:11:25;1.30;;;0.70;;
19543;SDS011;9917;51.256;7.152;2023-04-01T03:13:51;1.80;;;0.50;;
19543;SDS011;9917;51.256;7.152;2023-04-01T03:16:18;3.87;;;0.83;;
19543;SDS011;9917;51.256;7.152;2023-04-01T03:18:44;2.37;;;0.70;;
19543;SDS011;9917;51.256;7.152;2023-04-01T03:21:13;3.13;;;0.70;;
19543;SDS011;9917;51.256;7.152;2023-04-01T03:23:40;1.43;;;0.50;;
19543;SDS011;9917;51.256;7.152;2023-04-01T03:26:06;0.87;;;0.60;;
19543;SDS011;9917;51.256;7.152;2023-04-01T03:28:31;4.03;;;0.60;;
19543;SDS011;9917;51.256;7.152;2023-04-01T03:30:57;1.63;;;0.73;;
19543;SDS011;9917;51.256;7.152;2023-04-01T03:33:24;1.93;;;0.90;;
19543;SDS011;9917;51.256;7.152;2023-04-01T03:35:50;1.23;;;0.70;;
19543;SDS011;9917;51.256;7.152;2023-04-01T03:38:16;3.70;;;0.60;;
19543;SDS011;9917;51.256;7.152;2023-04-01T03:40:42;1.63;;;1.00;;
19543;SDS011;9917;51.256;7.152;2023-04-01T03:43:08;3.33;;;1.70;;
19543;SDS011;9917;51.256;7.152;2023-04-01T03:45:33;2.03;;;1.23;;
19543;SDS011;9917;51.256;7.152;2023-04-01T03:47:59;1.97;;;1.30;;
19543;SDS011;9917;51.256;7.152;2023-04-01T03:50:26;3.23;;;1.40;;
19543;SDS011;9917;51.256;7.152;2023-04-01T03:52:52;2.27;;;1.30;;
19543;SDS011;9917;51.256;7.152;2023-04-01T03:55:17;3.83;;;1.23;;
19543;SDS011;9917;51.256;7.152;2023-04-01T03:57:43;1.93;;;1.67;;
19543;SDS011;9917;51.256;7.152;2023-04-01T04:00:09;3.10;;;1.70;;
19543;SDS011;9917;51.256;7.152;2023-04-01T04:02:36;2.90;;;1.90;;
19543;SDS011;9917;51.256;7.152;2023-04-01T04:05:01;2.57;;;2.23;;
19543;SDS011;9917;51.256;7.152;2023-04-01T04:07:29;2.60;;;2.00;;
19543;SDS011;9917;51.256;7.152;2023-04-01T04:09:54;3.80;;;2.10;;
19543;SDS011;9917;51.256;7.152;2023-04-01T04:12:20;2.80;;;1.97;;
19543;SDS011;9917;51.256;7.152;2023-04-01T04:14:46;3.23;;;2.30;;
19543;SDS011;9917;51.256;7.152;2023-04-01T04:17:11;3.37;;;2.10;;
19543;SDS011;9917;51.256;7.152;2023-04-01T04:19:37;2.13;;;1.67;;
19543;SDS011;9917;51.256;7.152;2023-04-01T04:22:03;2.30;;;1.50;;
19543;SDS011;9917;51.256;7.152;2023-04-01T04:24:33;1.93;;;1.43;;
19543;SDS011;9917;51.256;7.152;2023-04-01T04:26:59;3.57;;;1.80;;
19543;SDS011;9917;51.256;7.152;2023-04-01T04:29:24;2.63;;;1.70;;
19543;SDS011;9917;51.256;7.152;2023-04-01T04:31:50;3.00;;;1.93;;
19543;SDS011;9917;51.256;7.152;2023-04-01T04:34:16;2.80;;;1.70;;
19543;SDS011;9917;51.256;7.152;2023-04-01T04:36:42;3.03;;;1.90;;
19543;SDS011;9917;51.256;7.152;2023-04-01T04:39:08;2.37;;;1.70;;
19543;SDS011;9917;51.256;7.152;2023-04-01T04:41:36;2.73;;;1.60;;
19543;SDS011;9917;51.256;7.152;2023-04-01T04:44:02;2.40;;;1.60;;
19543;SDS011;9917;51.256;7.152;2023-04-01T04:46:30;2.23;;;1.50;;
19543;SDS011;9917;51.256;7.152;2023-04-01T04:48:56;1.87;;;1.50;;
19543;SDS011;9917;51.256;7.152;2023-04-01T04:51:21;1.77;;;1.30;;
19543;SDS011;9917;51.256;7.152;2023-04-01T04:53:47;2.07;;;1.50;;
19543;SDS011;9917;51.256;7.152;2023-04-01T04:56:16;2.30;;;1.60;;
19543;SDS011;9917;51.256;7.152;2023-04-01T04:58:44;2.07;;;1.60;;
19543;SDS011;9917;51.256;7.152;2023-04-01T05:01:11;2.60;;;1.70;;
19543;SDS011;9917;51.256;7.152;2023-04-01T05:03:39;2.87;;;2.00;;
19543;SDS011;9917;51.256;7.152;2023-04-01T05:06:05;1.83;;;1.57;;
19543;SDS011;9917;51.256;7.152;2023-04-01T05:08:32;2.03;;;1.80;;
19543;SDS011;9917;51.256;7.152;2023-04-01T05:10:58;6.87;;;1.90;;
19543;SDS011;9917;51.256;7.152;2023-04-01T05:13:24;3.40;;;1.57;;
19543;SDS011;9917;51.256;7.152;2023-04-01T05:15:51;1.63;;;1.53;;
19543;SDS011;9917;51.256;7.152;2023-04-01T05:18:17;1.93;;;1.50;;
19543;SDS011;9917;51.256;7.152;2023-04-01T05:20:47;2.17;;;1.80;;
19543;SDS011;9917;51.256;7.152;2023-04-01T05:23:13;2.27;;;1.77;;
19543;SDS011;9917;51.256;7.152;2023-04-01T05:25:39;3.30;;;2.00;;
19543;SDS011;9917;51.256;7.152;2023-04-01T05:28:05;2.43;;;2.10;;
19543;SDS011;9917;51.256;7.152;2023-04-01T05:30:31;2.03;;;1.83;;
19543;SDS011;9917;51.256;7.152;2023-04-01T05:32:58;2.43;;;1.80;;
19543;SDS011;9917;51.256;7.152;2023-04-01T05:35:24;4.13;;;1.93;;
19543;SDS011;9917;51.256;7.152;2023-04-01T05:37:49;3.47;;;1.90;;
19543;SDS011;9917;51.256;7.152;2023-04-01T05:40:15;2.55;;;1.48;;
19543;SDS011;9917;51.256;7.152;2023-04-01T05:42:41;1.98;;;1.50;;
19543;SDS011;9917;51.256;7.152;2023-04-01T05:45:07;1.50;;;1.40;;
19543;SDS011;9917;51.256;7.152;2023-04-01T05:47:33;2.20;;;1.80;;
19543;SDS011;9917;51.256;7.152;2023-04-01T05:50:01;2.67;;;1.47;;
19543;SDS011;9917;51.256;7.152;2023-04-01T05:52:26;4.47;;;1.20;;
19543;SDS011;9917;51.256;7.152;2023-04-01T05:54:53;1.77;;;1.40;;
19543;SDS011;9917;51.256;7.152;2023-04-01T05:57:18;2.13;;;1.20;;
19543;SDS011;9917;51.256;7.152;2023-04-01T05:59:44;1.43;;;1.10;;
19543;SDS011;9917;51.256;7.152;2023-04-01T06:02:10;2.70;;;1.50;;
19543;SDS011;9917;51.256;7.152;2023-04-01T06:04:37;3.10;;;1.40;;
19543;SDS011;9917;51.256;7.152;2023-04-01T06:07:08;1.67;;;1.40;;
19543;SDS011;9917;51.256;7.152;2023-04-01T06:09:36;2.80;;;1.73;;
19543;SDS011;9917;51.256;7.152;2023-04-01T06:12:08;1.60;;;1.40;;
19543;SDS011;9917;51.256;7.152;2023-04-01T06:15:00;2.50;;;1.20;;
19543;SDS011;9917;51.256;7.152;2023-04-01T06:17:47;3.53;;;1.27;;
19543;SDS011;9917;51.256;7.152;2023-04-01T06:20:26;2.00;;;1.47;;
19543;SDS011;9917;51.256;7.152;2023-04-01T06:23:05;3.37;;;1.83;;
19543;SDS011;9917;51.256;7.152;2023-04-01T06:25:46;3.13;;;1.47;;
19543;SDS011;9917;51.256;7.152;2023-04-01T06:28:26;3.40;;;1.27;;
19543;SDS011;9917;51.256;7.152;2023-04-01T06:31:10;2.50;;;1.60;;
19543;SDS011;9917;51.256;7.152;2023-04-01T06:33:51;2.87;;;1.60;;
19543;SDS011;9917;51.256;7.152;2023-04-01T06:36:39;1.60;;;1.47;;
19543;SDS011;9917;51.256;7.152;2023-04-01T06:39:15;1.50;;;1.20;;
19543;SDS011;9917;51.256;7.152;2023-04-01T06:42:07;3.10;;;1.40;;
19543;SDS011;9917;51.256;7.152;2023-04-01T06:44:47;2.37;;;1.67;;
19543;SDS011;9917;51.256;7.152;2023-04-01T06:47:26;2.10;;;1.30;;
19543;SDS011;9917;51.256;7.152;2023-04-01T06:50:03;2.30;;;1.60;;
19543;SDS011;9917;51.256;7.152;2023-04-01T06:52:37;2.60;;;1.87;;
19543;SDS011;9917;51.256;7.152;2023-04-01T06:55:17;2.83;;;1.97;;
19543;SDS011;9917;51.256;7.152;2023-04-01T06:57:54;2.60;;;1.73;;
19543;SDS011;9917;51.256;7.152;2023-04-01T07:00:24;3.90;;;1.93;;
19543;SDS011;9917;51.256;7.152;2023-04-01T07:02:57;2.27;;;1.80;;
19543;SDS011;9917;51.256;7.152;2023-04-01T07:05:30;2.70;;;2.03;;
19543;SDS011;9917;51.256;7.152;2023-04-01T07:07:57;2.90;;;1.60;;
19543;SDS011;9917;51.256;7.152;2023-04-01T07:10:31;2.10;;;1.37;;
19543;SDS011;9917;51.256;7.152;2023-04-01T07:13:00;3.30;;;1.77;;
19543;SDS011;9917;51.256;7.152;2023-04-01T07:15:30;5.40;;;1.70;;
19543;SDS011;9917;51.256;7.152;2023-04-01T07:18:02;2.03;;;1.27;;
19543;SDS011;9917;51.256;7.152;2023-04-01T07:20:32;3.50;;;1.80;;
19543;SDS011;9917;51.256;7.152;2023-04-01T07:23:02;2.30;;;1.47;;
19543;SDS011;9917;51.256;7.152;2023-04-01T07:25:33;3.17;;;1.40;;
19543;SDS011;9917;51.256;7.152;2023-04-01T07:28:05;1.90;;;1.57;;
19543;SDS011;9917;51.256;7.152;2023-04-01T07:30:39;2.73;;;1.40;;
19543;SDS011;9917;51.256;7.152;2023-04-01T07:33:15;1.43;;;1.17;;
19543;SDS011;9917;51.256;7.152;2023-04-01T07:35:45;1.60;;;1.40;;
19543;SDS011;9917;51.256;7.152;2023-04-01T07:38:19;1.83;;;1.40;;
19543;SDS011;9917;51.256;7.152;2023-04-01T07:40:54;2.30;;;1.70;;
19543;SDS011;9917;51.256;7.152;2023-04-01T07:43:52;2.13;;;1.43;;
19543;SDS011;9917;51.256;7.152;2023-04-01T07:46:29;2.20;;;1.30;;
19543;SDS011;9917;51.256;7.152;2023-04-01T07:49:22;3.23;;;1.50;;
19543;SDS011;9917;51.256;7.152;2023-04-01T07:51:55;2.37;;;1.57;;
19543;SDS011;9917;51.256;7.152;2023-04-01T07:54:26;2.97;;;1.87;;
19543;SDS011;9917;51.256;7.152;2023-04-01T07:57:02;2.07;;;1.80;;
19543;SDS011;9917;51.256;7.152;2023-04-01T07:59:34;2.70;;;2.10;;
19543;SDS011;9917;51.256;7.152;2023-04-01T08:02:08;2.53;;;2.30;;
19543;SDS011;9917;51.256;7.152;2023-04-01T08:04:42;2.53;;;2.30;;
19543;SDS011;9917;51.256;7.152;2023-04-01T08:07:18;3.03;;;1.90;;
19543;SDS011;9917;51.256;7.152;2023-04-01T08:09:48;2.00;;;1.80;;
19543;SDS011;9917;51.256;7.152;2023-04-01T08:12:24;2.13;;;1.70;;
19543;SDS011;9917;51.256;7.152;2023-04-01T08:15:05;2.73;;;1.67;;
19543;SDS011;9917;51.256;7.152;2023-04-01T08:17:39;2.03;;;1.50;;
19543;SDS011;9917;51.256;7.152;2023-04-01T08:20:16;2.77;;;1.70;;
19543;SDS011;9917;51.256;7.152;2023-04-01T08:22:51;3.17;;;1.90;;
19543;SDS011;9917;51.256;7.152;2023-04-01T08:25:22;2.53;;;1.70;;
19543;SDS011;9917;51.256;7.152;2023-04-01T08:27:53;1.83;;;1.23;;
19543;SDS011;9917;51.256;7.152;2023-04-01T08:30:23;2.03;;;1.67;;
19543;SDS011;9917;51.256;7.152;2023-04-01T08:32:51;2.27;;;1.50;;
19543;SDS011;9917;51.256;7.152;2023-04-01T08:35:24;2.10;;;1.77;;
19543;SDS011;9917;51.256;7.152;2023-04-01T08:37:53;3.33;;;2.00;;
19543;SDS011;9917;51.256;7.152;2023-04-01T08:40:30;3.97;;;2.00;;
19543;SDS011;9917;51.256;7.152;2023-04-01T08:43:09;2.77;;;2.33;;
19543;SDS011;9917;51.256;7.152;2023-04-01T08:45:45;2.40;;;1.90;;
19543;SDS011;9917;51.256;7.152;2023-04-01T08:48:23;2.70;;;2.10;;
19543;SDS011;9917;51.256;7.152;2023-04-01T08:51:27;2.97;;;1.93;;
19543;SDS011;9917;51.256;7.152;2023-04-01T08:54:22;2.07;;;1.87;;
19543;SDS011;9917;51.256;7.152;2023-04-01T08:57:04;2.93;;;1.87;;
19543;SDS011;9917;51.256;7.152;2023-04-01T08:59:43;2.43;;;1.60;;
19543;SDS011;9917;51.256;7.152;2023-04-01T09:05:32;2.73;;;1.60;;
19543;SDS011;9917;51.256;7.152;2023-04-01T09:08:15;1.93;;;1.70;;
19543;SDS011;9917;51.256;7.152;2023-04-01T09:10:57;2.93;;;1.77;;
19543;SDS011;9917;51.256;7.152;2023-04-01T09:13:35;2.20;;;1.47;;
19543;SDS011;9917;51.256;7.152;2023-04-01T09:16:34;2.40;;;1.77;;
19543;SDS011;9917;51.256;7.152;2023-04-01T09:19:15;3.07;;;2.13;;
19543;SDS011;9917;51.256;7.152;2023-04-01T09:21:56;3.33;;;2.37;;
19543;SDS011;9917;51.256;7.152;2023-04-01T09:27:40;4.43;;;2.57;;
19543;SDS011;9917;51.256;7.152;2023-04-01T09:36:21;3.57;;;2.50;;
19543;SDS011;9917;51.256;7.152;2023-04-01T09:39:03;6.90;;;2.80;;
19543;SDS011;9917;51.256;7.152;2023-04-01T09:42:06;4.33;;;2.63;;
19543;SDS011;9917;51.256;7.152;2023-04-01T09:44:41;4.67;;;3.53;;
19543;SDS011;9917;51.256;7.152;2023-04-01T09:47:16;5.37;;;3.87;;
19543;SDS011;9917;51.256;7.152;2023-04-01T09:50:04;5.57;;;4.57;;
19543;SDS011;9917;51.256;7.152;2023-04-01T09:52:49;6.03;;;4.40;;
19543;SDS011;9917;51.256;7.152;2023-04-01T09:55:35;5.43;;;4.20;;
19543;SDS011;9917;51.256;7.152;2023-04-01T09:58:28;5.43;;;4.27;;
19543;SDS011;9917;51.256;7.152;2023-04-01T10:16:46;5.50;;;4.20;;
19543;SDS011;9917;51.256;7.152;2023-04-01T10:19:46;6.20;;;4.37;;
19543;SDS011;9917;51.256;7.152;2023-04-01T10:25:30;6.50;;;3.53;;
19543;SDS011;9917;51.256;7.152;2023-04-01T10:40:20;10.43;;;6.40;;
19543;SDS011;9917;51.256;7.152;2023-04-01T10:46:14;9.20;;;5.87;;
19543;SDS011;9917;51.256;7.152;2023-04-01T10:49:10;9.20;;;5.33;;
19543;SDS011;9917;51.256;7.152;2023-04-01T10:52:30;7.03;;;5.30;;
19543;SDS011;9917;51.256;7.152;2023-04-01T10:55:30;6.87;;;4.60;;
19543;SDS011;9917;51.256;7.152;2023-04-01T10:58:17;5.90;;;4.57;;
19543;SDS011;9917;51.256;7.152;2023-04-01T11:01:13;5.97;;;4.13;;
19543;SDS011;9917;51.256;7.152;2023-04-01T11:10:06;4.37;;;3.10;;
19543;SDS011;9917;51.256;7.152;2023-04-01T11:13:08;4.33;;;2.73;;
19543;SDS011;9917;51.256;7.152;2023-04-01T11:16:01;4.57;;;3.20;;
19543;SDS011;9917;51.256;7.152;2023-04-01T11:18:53;4.17;;;2.80;;
19543;SDS011;9917;51.256;7.152;2023-04-01T11:21:46;5.43;;;2.63;;
19543;SDS011;9917;51.256;7.152;2023-04-01T11:27:45;2.67;;;2.00;;
19543;SDS011;9917;51.256;7.152;2023-04-01T11:30:28;4.23;;;2.60;;
19543;SDS011;9917;51.256;7.152;2023-04-01T11:33:00;4.57;;;2.50;;
19543;SDS011;9917;51.256;7.152;2023-04-01T11:38:31;4.10;;;2.40;;
19543;SDS011;9917;51.256;7.152;2023-04-01T11:41:24;3.33;;;2.50;;
19543;SDS011;9917;51.256;7.152;2023-04-01T11:44:03;3.50;;;2.90;;
19543;SDS011;9917;51.256;7.152;2023-04-01T11:46:42;4.87;;;3.10;;
19543;SDS011;9917;51.256;7.152;2023-04-01T11:49:29;4.33;;;2.97;;
19543;SDS011;9917;51.256;7.152;2023-04-01T11:52:09;3.40;;;2.80;;
19543;SDS011;9917;51.256;7.152;2023-04-01T11:55:02;3.83;;;3.10;;
19543;SDS011;9917;51.256;7.152;2023-04-01T11:57:57;4.20;;;3.53;;
19543;SDS011;9917;51.256;7.152;2023-04-01T12:00:52;3.77;;;2.90;;
19543;SDS011;9917;51.256;7.152;2023-04-01T12:06:48;4.57;;;3.50;;
19543;SDS011;9917;51.256;7.152;2023-04-01T12:09:25;4.70;;;3.00;;
19543;SDS011;9917;51.256;7.152;2023-04-01T12:12:03;4.13;;;2.70;;
19543;SDS011;9917;51.256;7.152;2023-04-01T12:14:40;4.10;;;2.70;;
19543;SDS011;9917;51.256;7.152;2023-04-01T12:17:13;3.93;;;3.00;;
19543;SDS011;9917;51.256;7.152;2023-04-01T12:19:48;3.37;;;2.80;;
19543;SDS011;9917;51.256;7.152;2023-04-01T12:22:30;4.27;;;2.87;;
19543;SDS011;9917;51.256;7.152;2023-04-01T12:25:12;4.17;;;3.47;;
19543;SDS011;9917;51.256;7.152;2023-04-01T12:27:45;5.90;;;3.80;;
19543;SDS011;9917;51.256;7.152;2023-04-01T12:30:25;5.63;;;4.10;;
19543;SDS011;9917;51.256;7.152;2023-04-01T12:33:27;5.30;;;4.10;;
19543;SDS011;9917;51.256;7.152;2023-04-01T12:36:13;6.53;;;4.57;;
19543;SDS011;9917;51.256;7.152;2023-04-01T12:38:51;7.77;;;5.00;;
19543;SDS011;9917;51.256;7.152;2023-04-01T12:41:36;8.73;;;5.87;;
19543;SDS011;9917;51.256;7.152;2023-04-01T12:44:16;7.97;;;5.10;;
19543;SDS011;9917;51.256;7.152;2023-04-01T12:47:12;8.10;;;5.53;;
19543;SDS011;9917;51.256;7.152;2023-04-01T12:52:46;9.13;;;5.97;;
19543;SDS011;9917;51.256;7.152;2023-04-01T12:55:32;8.67;;;5.87;;
19543;SDS011;9917;51.256;7.152;2023-04-01T13:01:19;7.63;;;5.73;;
19543;SDS011;9917;51.256;7.152;2023-04-01T13:06:58;8.63;;;6.30;;
19543;SDS011;9917;51.256;7.152;2023-04-01T13:09:49;9.67;;;6.20;;
19543;SDS011;9917;51.256;7.152;2023-04-01T13:12:33;8.30;;;6.27;;
19543;SDS011;9917;51.256;7.152;2023-04-01T13:15:08;9.53;;;6.40;;
19543;SDS011;9917;51.256;7.152;2023-04-01T13:17:46;9.90;;;6.73;;
19543;SDS011;9917;51.256;7.152;2023-04-01T13:20:20;8.57;;;6.47;;
19543;SDS011;9917;51.256;7.152;2023-04-01T13:22:59;8.50;;;6.23;;
19543;SDS011;9917;51.256;7.152;2023-04-01T13:25:34;8.00;;;6.27;;
19543;SDS011;9917;51.256;7.152;2023-04-01T13:28:09;10.30;;;7.00;;
19543;SDS011;9917;51.256;7.152;2023-04-01T13:30:43;8.83;;;6.50;;
19543;SDS011;9917;51.256;7.152;2023-04-01T13:33:17;8.93;;;6.40;;
19543;SDS011;9917;51.256;7.152;2023-04-01T13:35:51;10.37;;;6.10;;
19543;SDS011;9917;51.256;7.152;2023-04-01T13:38:38;9.40;;;6.20;;
19543;SDS011;9917;51.256;7.152;2023-04-01T13:41:30;7.70;;;6.07;;
19543;SDS011;9917;51.256;7.152;2023-04-01T13:44:09;7.50;;;5.90;;
19543;SDS011;9917;51.256;7.152;2023-04-01T13:46:47;8.43;;;5.90;;
19543;SDS011;9917;51.256;7.152;2023-04-01T13:49:38;6.60;;;5.17;;
19543;SDS011;9917;51.256;7.152;2023-04-01T13:58:29;8.87;;;6.00;;
19543;SDS011;9917;51.256;7.152;2023-04-01T14:01:07;6.53;;;5.53;;
19543;SDS011;9917;51.256;7.152;2023-04-01T14:03:40;6.40;;;5.43;;
19543;SDS011;9917;51.256;7.152;2023-04-01T14:06:21;7.73;;;4.93;;
19543;SDS011;9917;51.256;7.152;2023-04-01T14:09:17;6.73;;;5.10;;
19543;SDS011;9917;51.256;7.152;2023-04-01T14:12:06;6.43;;;5.07;;
19543;SDS011;9917;51.256;7.152;2023-04-01T14:14:44;7.30;;;5.03;;
19543;SDS011;9917;51.256;7.152;2023-04-01T14:20:21;7.40;;;4.77;;
19543;SDS011;9917;51.256;7.152;2023-04-01T14:22:54;8.43;;;5.40;;
19543;SDS011;9917;51.256;7.152;2023-04-01T14:25:46;7.33;;;5.20;;
19543;SDS011;9917;51.256;7.152;2023-04-01T14:28:35;6.83;;;5.20;;
19543;SDS011;9917;51.256;7.152;2023-04-01T14:31:20;6.63;;;4.93;;
19543;SDS011;9917;51.256;7.152;2023-04-01T14:34:00;6.60;;;4.60;;
19543;SDS011;9917;51.256;7.152;2023-04-01T14:36:46;6.30;;;4.63;;
19543;SDS011;9917;51.256;7.152;2023-04-01T14:39:28;7.93;;;5.63;;
19543;SDS011;9917;51.256;7.152;2023-04-01T14:42:09;9.67;;;6.47;;
19543;SDS011;9917;51.256;7.152;2023-04-01T14:44:49;8.73;;;5.87;;
19543;SDS011;9917;51.256;7.152;2023-04-01T14:47:40;8.03;;;5.53;;
19543;SDS011;9917;51.256;7.152;2023-04-01T14:50:14;8.67;;;5.97;;
19543;SDS011;9917;51.256;7.152;2023-04-01T14:52:42;10.00;;;6.20;;
19543;SDS011;9917;51.256;7.152;2023-04-01T14:55:19;8.20;;;5.93;;
19543;SDS011;9917;51.256;7.152;2023-04-01T14:58:00;9.53;;;5.87;;
19543;SDS011;9917;51.256;7.152;2023-04-01T15:00:40;8.27;;;5.97;;
19543;SDS011;9917;51.256;7.152;2023-04-01T15:03:13;7.47;;;5.50;;
19543;SDS011;9917;51.256;7.152;2023-04-01T15:05:46;6.73;;;5.07;;
19543;SDS011;9917;51.256;7.152;2023-04-01T15:08:18;6.73;;;4.87;;
19543;SDS011;9917;51.256;7.152;2023-04-01T15:10:55;6.43;;;4.97;;
19543;SDS011;9917;51.256;7.152;2023-04-01T15:13:38;6.03;;;4.67;;
19543;SDS011;9917;51.256;7.152;2023-04-01T15:16:18;8.07;;;5.43;;
19543;SDS011;9917;51.256;7.152;2023-04-01T15:18:53;5.00;;;4.30;;
19543;SDS011;9917;51.256;7.152;2023-04-01T15:21:30;6.17;;;4.60;;
19543;SDS011;9917;51.256;7.152;2023-04-01T15:24:06;7.93;;;5.30;;
19543;SDS011;9917;51.256;7.152;2023-04-01T15:26:50;7.80;;;4.90;;
19543;SDS011;9917;51.256;7.152;2023-04-01T15:32:21;10.67;;;5.20;;
19543;SDS011;9917;51.256;7.152;2023-04-01T15:34:53;8.00;;;5.97;;
19543;SDS011;9917;51.256;7.152;2023-04-01T15:37:29;6.03;;;4.93;;
19543;SDS011;9917;51.256;7.152;2023-04-01T15:40:05;9.03;;;5.07;;
19543;SDS011;9917;51.256;7.152;2023-04-01T15:42:44;7.73;;;5.67;;
19543;SDS011;9917;51.256;7.152;2023-04-01T15:45:24;7.60;;;5.30;;
19543;SDS011;9917;51.256;7.152;2023-04-01T15:48:06;8.23;;;4.97;;
19543;SDS011;9917;51.256;7.152;2023-04-01T15:50:52;6.43;;;4.47;;
19543;SDS011;9917;51.256;7.152;2023-04-01T15:56:53;6.07;;;4.72;;
19543;SDS011;9917;51.256;7.152;2023-04-01T15:59:47;5.40;;;3.90;;
19543;SDS011;9917;51.256;7.152;2023-04-01T16:02:22;4.93;;;3.70;;
19543;SDS011;9917;51.256;7.152;2023-04-01T16:04:58;5.33;;;3.93;;
19543;SDS011;9917;51.256;7.152;2023-04-01T16:10:19;7.43;;;3.70;;
19543;SDS011;9917;51.256;7.152;2023-04-01T16:12:59;5.07;;;3.57;;
19543;SDS011;9917;51.256;7.152;2023-04-01T16:15:37;4.80;;;3.67;;
19543;SDS011;9917;51.256;7.152;2023-04-01T16:18:12;4.83;;;3.67;;
19543;SDS011;9917;51.256;7.152;2023-04-01T16:20:54;6.60;;;4.20;;
19543;SDS011;9917;51.256;7.152;2023-04-01T16:23:24;4.83;;;3.50;;
19543;SDS011;9917;51.256;7.152;2023-04-01T16:26:01;4.95;;;4.13;;
19543;SDS011;9917;51.256;7.152;2023-04-01T16:28:34;5.87;;;4.30;;
19543;SDS011;9917;51.256;7.152;2023-04-01T16:31:05;5.97;;;4.40;;
19543;SDS011;9917;51.256;7.152;2023-04-01T16:33:37;5.77;;;4.17;;
19543;SDS011;9917;51.256;7.152;2023-04-01T16:36:13;5.77;;;4.20;;
19543;SDS011;9917;51.256;7.152;2023-04-01T16:38:53;5.10;;;3.93;;
19543;SDS011;9917;51.256;7.152;2023-04-01T16:41:31;5.03;;;3.73;;
19543;SDS011;9917;51.256;7.152;2023-04-01T16:44:09;15.97;;;10.00;;
19543;SDS011;9917;51.256;7.152;2023-04-01T16:46:43;4.83;;;3.83;;
19543;SDS011;9917;51.256;7.152;2023-04-01T16:49:23;4.77;;;3.60;;
19543;SDS011;9917;51.256;7.152;2023-04-01T16:51:54;4.50;;;3.33;;
19543;SDS011;9917;51.256;7.152;2023-04-01T16:54:28;5.33;;;3.93;;
19543;SDS011;9917;51.256;7.152;2023-04-01T16:57:09;6.60;;;4.00;;
19543;SDS011;9917;51.256;7.152;2023-04-01T16:59:46;4.93;;;3.80;;
19543;SDS011;9917;51.256;7.152;2023-04-01T17:02:17;5.30;;;4.07;;
19543;SDS011;9917;51.256;7.152;2023-04-01T17:04:52;7.03;;;4.20;;
19543;SDS011;9917;51.256;7.152;2023-04-01T17:07:24;4.77;;;3.60;;
19543;SDS011;9917;51.256;7.152;2023-04-01T17:10:10;6.03;;;4.33;;
19543;SDS011;9917;51.256;7.152;2023-04-01T17:13:03;6.40;;;4.13;;
19543;SDS011;9917;51.256;7.152;2023-04-01T17:15:43;6.50;;;3.87;;
19543;SDS011;9917;51.256;7.152;2023-04-01T17:18:19;5.70;;;4.00;;